Time;durP1;ratioP1;P1;durP2;ratioP2;P2;SDS_P1;SDS_P2;PMS_P1;PMS_P2;Temp;Humidity;BMP_temperature;BMP_pressure;BME280_temperature;BME280_humidity;BME280_pressure;Samples;Min_cycle;Max_cycle;Signal;HPM_P1;HPM_P2
2023/08/23 00:00:16;;;;;;;11.70;7.55;;;24.80;99.90;;;;;;6193777;23;20024;-86
2023/08/23 00:02:44;;;;;;;12.15;7.55;;;24.80;99.90;;;;;;6246686;23;20035;-86
2023/08/23 00:05:11;;;;;;;12.60;7.93;;;24.80;99.90;;;;;;6198491;23;20039;-86
2023/08/23 00:07:38;;;;;;;10.75;7.88;;;24.80;99.90;;;;;;6195993;23;20023;-86
2023/08/23 00:10:05;;;;;;;10.25;7.10;;;24.80;99.90;;;;;;6221218;23;20043;-86
2023/08/23 00:12:33;;;;;;;10.85;7.30;;;24.80;99.90;;;;;;6221933;23;20030;-86
2023/08/23 00:15:00;;;;;;;11.77;8.15;;;24.70;99.90;;;;;;6195873;23;20031;-86
2023/08/23 00:17:27;;;;;;;10.05;7.45;;;24.70;99.90;;;;;;6221362;23;20020;-86
2023/08/23 00:19:54;;;;;;;13.38;8.75;;;24.70;99.90;;;;;;6196036;23;20035;-86
2023/08/23 00:22:22;;;;;;;12.38;8.00;;;24.60;99.90;;;;;;6220891;23;20020;-87
2023/08/23 00:24:49;;;;;;;14.80;7.85;;;24.60;99.90;;;;;;6220252;23;20040;-86
2023/08/23 00:27:16;;;;;;;12.45;8.13;;;24.60;99.90;;;;;;6195809;23;20043;-86
2023/08/23 00:29:44;;;;;;;12.25;8.25;;;24.60;99.90;;;;;;6195463;23;20078;-86
2023/08/23 00:32:11;;;;;;;14.45;8.25;;;24.60;99.90;;;;;;6220741;23;20399;-86
2023/08/23 00:34:38;;;;;;;12.35;8.15;;;24.60;99.90;;;;;;6196042;23;20613;-86
2023/08/23 00:37:07;;;;;;;12.30;8.98;;;24.60;99.90;;;;;;6223309;23;20024;-85
2023/08/23 00:39:34;;;;;;;10.75;7.70;;;24.60;99.90;;;;;;6220296;23;20020;-86
2023/08/23 00:42:01;;;;;;;11.75;9.13;;;24.60;99.90;;;;;;6220746;23;20031;-86
2023/08/23 00:44:28;;;;;;;12.23;9.02;;;24.50;99.90;;;;;;6195932;23;20470;-85
2023/08/23 00:46:56;;;;;;;11.00;7.32;;;24.50;99.90;;;;;;6219418;23;20020;-85
2023/08/23 00:49:23;;;;;;;14.20;8.45;;;24.40;99.90;;;;;;6195640;23;20074;-85
2023/08/23 00:51:53;;;;;;;11.85;7.57;;;24.50;99.90;;;;;;6196763;23;20023;-85
2023/08/23 00:54:21;;;;;;;16.05;9.07;;;24.40;99.90;;;;;;6222575;23;20051;-85
2023/08/23 00:56:50;;;;;;;10.65;6.90;;;24.40;99.90;;;;;;6198592;23;20373;-86
2023/08/23 00:59:17;;;;;;;12.40;7.90;;;24.40;99.90;;;;;;6197906;23;20428;-86
2023/08/23 01:01:45;;;;;;;13.77;7.75;;;24.40;99.90;;;;;;6197401;23;20028;-85
2023/08/23 01:04:12;;;;;;;10.98;7.68;;;24.30;99.90;;;;;;6222203;23;20016;-86
2023/08/23 01:06:59;;;;;;;14.40;7.97;;;24.30;99.90;;;;;;6198927;23;20020;-85
2023/08/23 01:10:08;;;;;;;14.07;7.97;;;24.30;99.90;;;;;;6224759;23;20016;-85
2023/08/23 01:12:37;;;;;;;12.32;8.27;;;24.30;99.90;;;;;;6222797;23;20020;-86
2023/08/23 01:15:05;;;;;;;9.90;7.72;;;24.30;99.90;;;;;;6198148;23;20024;-85
2023/08/23 01:17:34;;;;;;;12.70;8.82;;;24.30;99.90;;;;;;6223583;23;20031;-85
2023/08/23 01:20:02;;;;;;;14.15;9.05;;;24.30;99.90;;;;;;6222408;23;20028;-84
2023/08/23 01:22:32;;;;;;;12.00;8.25;;;24.20;99.90;;;;;;6222543;23;20402;-85
2023/08/23 01:24:59;;;;;;;12.90;8.55;;;24.20;99.90;;;;;;6198276;23;20051;-85
2023/08/23 01:27:28;;;;;;;14.35;9.10;;;24.20;99.90;;;;;;6198359;23;20031;-85
2023/08/23 01:29:58;;;;;;;13.95;8.73;;;24.20;99.90;;;;;;6221865;23;20020;-85
2023/08/23 01:32:45;;;;;;;12.20;8.48;;;24.20;99.90;;;;;;6221205;23;20016;-85
2023/08/23 01:35:18;;;;;;;12.00;8.50;;;24.10;99.90;;;;;;6221121;23;20517;-86
2023/08/23 01:37:50;;;;;;;9.35;7.07;;;24.10;99.90;;;;;;6220281;23;20078;-85
2023/08/23 01:40:18;;;;;;;13.70;8.73;;;24.20;99.90;;;;;;6220082;23;20398;-85
2023/08/23 01:42:47;;;;;;;11.90;8.02;;;24.10;99.90;;;;;;6196026;23;20051;-85
2023/08/23 01:45:15;;;;;;;12.10;7.93;;;24.10;99.90;;;;;;6221237;23;20066;-85
2023/08/23 01:47:42;;;;;;;12.48;8.65;;;24.10;99.90;;;;;;6223470;23;20020;-85
2023/08/23 01:50:09;;;;;;;12.98;8.50;;;24.10;99.90;;;;;;6222716;23;20749;-85
2023/08/23 01:52:37;;;;;;;13.80;9.18;;;24.10;99.90;;;;;;6221695;23;20082;-86
2023/08/23 01:55:08;;;;;;;17.83;10.40;;;24.00;99.90;;;;;;6221728;23;20031;-86
2023/08/23 01:57:36;;;;;;;10.43;8.00;;;24.00;99.90;;;;;;6197710;23;20055;-86
2023/08/23 02:00:06;;;;;;;15.52;8.48;;;24.00;99.90;;;;;;6196121;23;20078;-86
2023/08/23 02:02:56;;;;;;;12.43;8.95;;;24.00;99.90;;;;;;6182705;23;20017;-86
2023/08/23 02:05:23;;;;;;;12.82;8.90;;;24.00;99.90;;;;;;6182796;23;20021;-86
2023/08/23 02:07:51;;;;;;;14.30;8.52;;;24.00;99.90;;;;;;6161016;23;20392;-86
2023/08/23 02:10:20;;;;;;;12.48;9.02;;;23.90;99.90;;;;;;6185227;23;20028;-87
2023/08/23 02:12:47;;;;;;;10.63;7.65;;;23.90;99.90;;;;;;6159694;23;20021;-85
2023/08/23 02:15:15;;;;;;;12.15;8.18;;;23.90;99.90;;;;;;6135858;23;20876;-85
2023/08/23 02:17:42;;;;;;;15.57;9.40;;;23.90;99.90;;;;;;6184489;23;20020;-87
2023/08/23 02:20:10;;;;;;;11.30;8.15;;;23.80;99.90;;;;;;6135555;23;20025;-87
2023/08/23 02:22:37;;;;;;;14.85;8.75;;;23.80;99.90;;;;;;6185002;23;20063;-86
2023/08/23 02:25:10;;;;;;;13.60;8.43;;;23.80;99.90;;;;;;6184914;23;20091;-87
2023/08/23 02:27:40;;;;;;;13.23;7.97;;;23.80;99.90;;;;;;6185544;23;20025;-86
2023/08/23 02:30:09;;;;;;;12.85;8.10;;;23.80;99.90;;;;;;6160001;23;20025;-86
2023/08/23 02:32:36;;;;;;;14.48;8.80;;;23.70;99.90;;;;;;6184052;23;20045;-86
2023/08/23 02:35:10;;;;;;;12.95;8.93;;;23.70;99.90;;;;;;6184403;23;20047;-87
2023/08/23 02:37:38;;;;;;;12.70;8.60;;;23.70;99.90;;;;;;6184907;23;20056;-85
2023/08/23 02:40:08;;;;;;;17.15;9.27;;;23.70;99.90;;;;;;6190522;23;20052;-86
2023/08/23 02:42:41;;;;;;;15.45;9.27;;;23.70;99.90;;;;;;6167835;23;20055;-86
2023/08/23 02:45:08;;;;;;;13.23;8.38;;;23.60;99.90;;;;;;6166355;23;20063;-86
2023/08/23 02:47:37;;;;;;;12.52;8.68;;;23.60;99.90;;;;;;6191244;23;20716;-86
2023/08/23 02:50:08;;;;;;;14.52;9.38;;;23.60;99.90;;;;;;6190415;23;20075;-87
2023/08/23 02:52:35;;;;;;;12.95;8.50;;;23.60;99.90;;;;;;6167946;23;20024;-86
2023/08/23 02:55:02;;;;;;;13.48;8.70;;;23.60;99.90;;;;;;6191575;23;20028;-86
2023/08/23 02:57:32;;;;;;;12.48;8.48;;;23.60;99.90;;;;;;6166429;23;20111;-87
2023/08/23 02:59:59;;;;;;;14.25;9.85;;;23.60;99.90;;;;;;6167131;23;20031;-88
2023/08/23 03:02:26;;;;;;;15.68;9.80;;;23.60;99.90;;;;;;6167808;23;20097;-86
2023/08/23 03:04:54;;;;;;;13.82;8.65;;;23.50;99.90;;;;;;6191353;23;20041;-86
2023/08/23 03:07:23;;;;;;;14.23;9.10;;;23.50;99.90;;;;;;6168507;23;20020;-87
2023/08/23 03:09:50;;;;;;;11.85;8.18;;;23.50;99.90;;;;;;6192396;23;20408;-87
2023/08/23 03:12:18;;;;;;;19.55;9.70;;;23.50;99.90;;;;;;6168738;23;20013;-86
2023/08/23 03:14:45;;;;;;;16.70;9.27;;;23.40;99.90;;;;;;6190912;23;20024;-86
2023/08/23 03:17:13;;;;;;;13.98;8.82;;;23.50;99.90;;;;;;6194436;23;20035;-86
2023/08/23 03:19:40;;;;;;;16.48;9.18;;;23.40;99.90;;;;;;6167158;23;20020;-86
2023/08/23 03:22:07;;;;;;;17.08;9.38;;;23.40;99.90;;;;;;6192223;23;20028;-86
2023/08/23 03:24:34;;;;;;;15.88;8.30;;;23.40;99.90;;;;;;6166265;23;20619;-86
2023/08/23 03:27:01;;;;;;;12.77;9.15;;;23.40;99.90;;;;;;6191762;23;20739;-86
2023/08/23 03:29:29;;;;;;;12.70;7.70;;;23.40;99.90;;;;;;6190295;23;20021;-86
2023/08/23 03:31:56;;;;;;;13.95;8.85;;;23.40;99.90;;;;;;6191259;23;20032;-86
2023/08/23 03:34:23;;;;;;;13.98;8.18;;;23.40;99.90;;;;;;6190838;23;20020;-86
2023/08/23 03:36:50;;;;;;;13.80;8.43;;;23.30;99.90;;;;;;6166749;23;20436;-86
2023/08/23 03:39:21;;;;;;;13.35;9.38;;;23.30;99.90;;;;;;6167560;23;20021;-86
2023/08/23 03:41:49;;;;;;;15.75;9.30;;;23.30;99.90;;;;;;6166032;23;20039;-87
2023/08/23 03:44:16;;;;;;;14.07;9.30;;;23.30;99.90;;;;;;6190228;23;20028;-87
2023/08/23 03:46:43;;;;;;;15.57;8.95;;;23.30;99.90;;;;;;6166489;23;20020;-86
2023/08/23 03:49:10;;;;;;;13.38;7.85;;;23.30;99.90;;;;;;6191998;23;20017;-86
2023/08/23 03:51:37;;;;;;;13.95;9.05;;;23.20;99.90;;;;;;6166526;23;20078;-86
2023/08/23 03:54:04;;;;;;;18.77;10.18;;;23.20;99.90;;;;;;6167466;23;20024;-86
2023/08/23 03:56:32;;;;;;;14.32;9.25;;;23.30;99.90;;;;;;6167130;23;20104;-86
2023/08/23 03:58:59;;;;;;;14.00;9.18;;;23.30;99.90;;;;;;6166566;23;20055;-86
2023/08/23 04:01:26;;;;;;;18.38;9.68;;;23.20;99.90;;;;;;6165913;23;20051;-86
2023/08/23 04:03:54;;;;;;;14.55;8.50;;;23.20;99.90;;;;;;6166812;23;20142;-86
2023/08/23 04:06:21;;;;;;;20.23;11.75;;;23.20;99.90;;;;;;6166710;23;20017;-87
2023/08/23 04:08:48;;;;;;;17.27;10.50;;;23.20;99.90;;;;;;6190738;23;20092;-87
2023/08/23 04:11:16;;;;;;;17.00;9.82;;;23.20;99.90;;;;;;6191795;23;20013;-85
2023/08/23 04:13:48;;;;;;;14.98;9.90;;;23.20;99.90;;;;;;6167060;23;20020;-85
2023/08/23 04:16:15;;;;;;;15.90;9.50;;;23.20;99.90;;;;;;6168656;23;20039;-86
2023/08/23 04:18:43;;;;;;;17.73;9.02;;;23.20;99.90;;;;;;6193745;23;20047;-86
2023/08/23 04:21:11;;;;;;;18.55;10.15;;;23.20;99.90;;;;;;6166209;23;20470;-86
2023/08/23 04:23:38;;;;;;;13.45;8.55;;;23.20;99.90;;;;;;6171299;23;20031;-86
2023/08/23 04:26:05;;;;;;;16.77;9.90;;;23.20;99.90;;;;;;6171619;23;20016;-86
2023/08/23 04:28:33;;;;;;;17.05;11.00;;;23.20;99.90;;;;;;6175021;23;20425;-86
2023/08/23 04:31:01;;;;;;;13.18;8.45;;;23.20;99.90;;;;;;6200016;23;20016;-86
2023/08/23 04:33:35;;;;;;;12.10;8.52;;;23.20;99.90;;;;;;6169737;23;20020;-86
2023/08/23 04:36:04;;;;;;;16.35;9.85;;;23.30;99.90;;;;;;6213120;23;20745;-86
2023/08/23 04:38:31;;;;;;;18.50;9.63;;;23.30;99.90;;;;;;6198127;23;20086;-85
2023/08/23 04:41:00;;;;;;;15.57;9.73;;;23.30;99.90;;;;;;6223615;23;20019;-85
2023/08/23 04:43:28;;;;;;;15.55;9.85;;;23.30;99.90;;;;;;6223621;23;20519;-86
2023/08/23 04:45:57;;;;;;;16.85;9.50;;;23.30;99.90;;;;;;6197301;23;20735;-86
2023/08/23 04:48:26;;;;;;;15.30;9.43;;;23.40;99.90;;;;;;6221103;23;20016;-86
2023/08/23 04:50:55;;;;;;;13.77;8.82;;;23.40;99.90;;;;;;6160777;23;20024;-87
2023/08/23 04:53:25;;;;;;;16.20;9.57;;;23.40;99.90;;;;;;6136177;23;20020;-87
2023/08/23 04:55:58;;;;;;;18.52;10.13;;;23.40;99.90;;;;;;6162061;23;20032;-86
2023/08/23 04:58:32;;;;;;;14.00;9.00;;;23.40;99.90;;;;;;6162323;23;20051;-86
2023/08/23 05:01:04;;;;;;;15.35;9.02;;;23.40;99.90;;;;;;6136836;23;20053;-85
2023/08/23 05:03:34;;;;;;;24.23;9.95;;;23.40;99.90;;;;;;6162003;23;20031;-86
2023/08/23 05:06:05;;;;;;;18.77;9.60;;;23.40;99.90;;;;;;6162540;23;20025;-86
2023/08/23 05:08:34;;;;;;;14.98;8.68;;;23.50;99.90;;;;;;6136726;23;20087;-86
2023/08/23 05:11:07;;;;;;;19.27;10.40;;;23.50;99.90;;;;;;6163010;23;20048;-86
2023/08/23 05:13:37;;;;;;;16.10;10.27;;;23.60;99.90;;;;;;6133772;23;20041;-84
2023/08/23 05:16:05;;;;;;;15.15;10.02;;;23.60;99.90;;;;;;6162106;23;20021;-85
2023/08/23 05:18:34;;;;;;;17.38;10.80;;;23.60;99.90;;;;;;6163445;23;20025;-85
2023/08/23 05:21:02;;;;;;;16.85;9.45;;;23.60;99.90;;;;;;6142884;23;20051;-86
2023/08/23 05:23:30;;;;;;;15.98;10.90;;;23.70;99.90;;;;;;6197545;23;20024;-85
2023/08/23 05:25:57;;;;;;;16.48;10.07;;;23.70;99.90;;;;;;6198317;23;20016;-84
2023/08/23 05:28:25;;;;;;;14.77;10.02;;;23.70;99.90;;;;;;6198092;23;20028;-84
2023/08/23 05:30:52;;;;;;;16.48;10.25;;;23.70;99.90;;;;;;6197408;23;20082;-84
2023/08/23 05:33:24;;;;;;;18.23;11.40;;;23.80;99.90;;;;;;6199435;23;20351;-83
2023/08/23 05:35:51;;;;;;;17.27;10.82;;;23.80;99.90;;;;;;6197620;23;20810;-84
2023/08/23 05:38:20;;;;;;;18.35;11.20;;;23.90;99.90;;;;;;6196021;23;20028;-83
2023/08/23 05:40:47;;;;;;;17.92;11.80;;;23.90;99.90;;;;;;6222584;23;20032;-83
2023/08/23 05:43:14;;;;;;;16.80;11.32;;;23.90;99.90;;;;;;6195811;23;20550;-84
2023/08/23 05:45:43;;;;;;;20.08;12.05;;;23.90;99.90;;;;;;6209012;23;20023;-84
2023/08/23 05:48:11;;;;;;;21.05;13.38;;;24.00;99.90;;;;;;6221063;23;20020;-84
2023/08/23 05:50:38;;;;;;;18.23;12.05;;;24.10;99.90;;;;;;6222118;23;20020;-85
2023/08/23 05:53:10;;;;;;;21.15;12.90;;;24.10;99.90;;;;;;6222512;23;20471;-86
2023/08/23 05:55:37;;;;;;;20.67;13.00;;;24.20;99.90;;;;;;6213613;23;20046;-87
2023/08/23 05:58:04;;;;;;;20.38;11.93;;;24.30;99.90;;;;;;6212552;23;20036;-85
2023/08/23 06:00:31;;;;;;;19.45;13.32;;;24.30;99.90;;;;;;6191622;23;20078;-82
2023/08/23 06:02:59;;;;;;;19.88;13.13;;;24.40;99.90;;;;;;6212467;23;20325;-83
2023/08/23 06:05:26;;;;;;;20.48;13.65;;;24.40;99.90;;;;;;6188714;23;20024;-82
2023/08/23 06:07:53;;;;;;;22.83;14.52;;;24.60;99.90;;;;;;6210599;23;20055;-82
2023/08/23 06:10:21;;;;;;;20.70;13.90;;;24.60;99.90;;;;;;6215265;23;20488;-83
2023/08/23 06:12:48;;;;;;;20.30;14.30;;;24.80;99.90;;;;;;6214928;23;20372;-82
2023/08/23 06:15:15;;;;;;;20.30;13.90;;;24.90;99.90;;;;;;6215958;23;20115;-82
2023/08/23 06:17:42;;;;;;;19.77;13.38;;;25.00;99.90;;;;;;6216141;23;20020;-83
2023/08/23 06:20:09;;;;;;;20.25;12.50;;;25.10;99.90;;;;;;6218362;23;20066;-86
2023/08/23 06:22:37;;;;;;;21.75;13.30;;;25.20;99.90;;;;;;6194058;23;20047;-84
2023/08/23 06:25:05;;;;;;;21.33;13.00;;;25.30;99.90;;;;;;6188980;23;20412;-82
2023/08/23 06:27:32;;;;;;;17.13;12.35;;;25.40;99.90;;;;;;6214219;23;20023;-82
2023/08/23 06:29:59;;;;;;;19.10;13.27;;;25.50;99.90;;;;;;6191855;23;20454;-84
2023/08/23 06:32:26;;;;;;;20.55;14.43;;;25.60;99.90;;;;;;6191616;23;20024;-83
2023/08/23 06:34:53;;;;;;;17.17;12.35;;;25.70;99.90;;;;;;6192375;23;20485;-83
2023/08/23 06:37:23;;;;;;;21.88;13.20;;;25.80;99.90;;;;;;6215491;23;20058;-82
2023/08/23 06:39:51;;;;;;;18.88;13.07;;;25.90;99.90;;;;;;6211835;23;20024;-80
2023/08/23 06:42:18;;;;;;;21.58;13.20;;;26.00;99.90;;;;;;6167353;23;20107;-83
2023/08/23 06:44:45;;;;;;;18.35;12.50;;;26.10;99.90;;;;;;6209418;23;20024;-81
2023/08/23 06:47:13;;;;;;;16.70;11.90;;;26.20;99.90;;;;;;6207991;23;20070;-79
2023/08/23 06:49:40;;;;;;;20.90;13.05;;;26.20;99.90;;;;;;6183929;23;20104;-82
2023/08/23 06:52:07;;;;;;;18.50;12.95;;;26.30;99.90;;;;;;6209527;23;20503;-83
2023/08/23 06:54:34;;;;;;;20.33;13.23;;;26.40;99.90;;;;;;6191647;23;20107;-83
2023/08/23 06:57:01;;;;;;;19.25;13.35;;;26.40;99.90;;;;;;6187505;23;20055;-83
2023/08/23 06:59:28;;;;;;;17.42;13.48;;;26.50;99.90;;;;;;6193620;23;20100;-84
2023/08/23 07:01:56;;;;;;;18.88;13.18;;;26.60;99.90;;;;;;6186087;23;20024;-80
2023/08/23 07:04:23;;;;;;;15.85;12.07;;;26.70;99.90;;;;;;6215083;23;20024;-83
2023/08/23 07:06:50;;;;;;;14.27;11.30;;;26.80;99.90;;;;;;6188740;23;20016;-83
2023/08/23 07:09:17;;;;;;;17.98;11.77;;;26.90;99.90;;;;;;6213817;23;20436;-82
2023/08/23 07:11:44;;;;;;;15.18;10.88;;;27.00;99.90;;;;;;6188465;23;20513;-83
2023/08/23 07:14:11;;;;;;;17.17;12.15;;;27.10;99.90;;;;;;6210830;23;20020;-83
2023/08/23 07:16:38;;;;;;;16.30;11.07;;;27.20;99.90;;;;;;6213583;23;20027;-82
2023/08/23 07:19:06;;;;;;;15.32;11.50;;;27.30;99.90;;;;;;6212502;23;20020;-80
2023/08/23 07:21:33;;;;;;;12.70;10.27;;;27.30;99.90;;;;;;6241281;23;20016;-83
2023/08/23 07:24:01;;;;;;;13.60;9.70;;;27.40;99.90;;;;;;6214177;23;20024;-83
2023/08/23 07:26:28;;;;;;;13.90;10.00;;;27.40;99.90;;;;;;6210895;23;20237;-83
2023/08/23 07:28:55;;;;;;;12.88;9.43;;;27.50;99.90;;;;;;6242091;23;20016;-81
2023/08/23 07:31:22;;;;;;;12.27;9.27;;;27.70;99.90;;;;;;6192294;23;20460;-82
2023/08/23 07:33:49;;;;;;;10.77;8.90;;;27.80;99.90;;;;;;6216833;23;20016;-84
2023/08/23 07:36:16;;;;;;;11.10;8.65;;;27.80;99.90;;;;;;6216489;23;20412;-82
2023/08/23 07:38:43;;;;;;;12.32;8.48;;;28.00;99.90;;;;;;6189362;23;20028;-79
2023/08/23 07:41:11;;;;;;;9.93;8.02;;;28.00;99.90;;;;;;6240135;23;20051;-83
2023/08/23 07:43:38;;;;;;;11.30;8.63;;;28.00;99.90;;;;;;6187458;23;20020;-82
2023/08/23 07:46:07;;;;;;;12.40;8.30;;;28.20;99.90;;;;;;6214031;23;20028;-80
2023/08/23 07:48:34;;;;;;;13.35;9.38;;;28.20;98.70;;;;;;6216196;23;20046;-79
2023/08/23 07:51:01;;;;;;;10.70;8.60;;;28.20;98.20;;;;;;6193838;23;20020;-81
2023/08/23 07:53:30;;;;;;;13.02;8.82;;;28.30;99.90;;;;;;6210019;23;20047;-79
2023/08/23 07:55:57;;;;;;;10.32;8.23;;;28.40;98.40;;;;;;6186047;23;20130;-79
2023/08/23 07:58:24;;;;;;;12.23;9.15;;;28.50;99.90;;;;;;6210654;23;20507;-84
2023/08/23 08:00:51;;;;;;;10.48;8.73;;;28.60;99.60;;;;;;6186718;23;20328;-78
2023/08/23 08:03:19;;;;;;;13.75;10.13;;;28.70;99.90;;;;;;6188074;23;20024;-80
2023/08/23 08:05:46;;;;;;;13.40;9.55;;;28.60;98.40;;;;;;6192161;23;20051;-81
2023/08/23 08:08:13;;;;;;;11.48;8.70;;;28.70;97.50;;;;;;6213831;23;20016;-78
2023/08/23 08:10:41;;;;;;;13.90;8.80;;;28.60;97.90;;;;;;6187957;23;20091;-80
2023/08/23 08:13:08;;;;;;;15.35;8.88;;;28.70;98.60;;;;;;6216726;23;20020;-81
2023/08/23 08:15:39;;;;;;;12.50;8.93;;;28.90;98.90;;;;;;6217339;23;20055;-81
2023/08/23 08:18:06;;;;;;;14.95;9.50;;;28.90;98.00;;;;;;6220892;23;20031;-79
2023/08/23 08:20:33;;;;;;;11.32;8.15;;;28.90;97.40;;;;;;6244720;23;20328;-81
2023/08/23 08:23:00;;;;;;;14.07;9.68;;;29.00;98.60;;;;;;6217707;23;20101;-81
2023/08/23 08:25:27;;;;;;;12.75;9.25;;;29.00;98.90;;;;;;6218016;23;20418;-81
2023/08/23 08:27:55;;;;;;;11.10;8.85;;;29.10;97.50;;;;;;6188946;23;20429;-78
2023/08/23 08:30:22;;;;;;;12.10;8.68;;;29.10;96.90;;;;;;6214656;23;20020;-80
2023/08/23 08:32:49;;;;;;;12.60;8.48;;;29.00;96.20;;;;;;6185780;23;20028;-78
2023/08/23 08:35:16;;;;;;;11.45;8.73;;;29.10;97.30;;;;;;6213516;23;20032;-79
2023/08/23 08:37:44;;;;;;;10.75;8.93;;;29.10;97.30;;;;;;6212087;23;20028;-79
2023/08/23 08:40:11;;;;;;;12.02;8.65;;;29.20;97.80;;;;;;6207944;23;20027;-79
2023/08/23 08:42:39;;;;;;;13.27;9.60;;;29.20;98.20;;;;;;6211492;23;20059;-79
2023/08/23 08:45:06;;;;;;;12.30;9.02;;;29.30;97.50;;;;;;6214122;23;20023;-79
2023/08/23 08:47:33;;;;;;;9.57;8.50;;;29.30;96.70;;;;;;6191248;23;20016;-81
2023/08/23 08:50:01;;;;;;;13.90;8.07;;;29.40;96.80;;;;;;6191556;23;20027;-80
2023/08/23 08:52:29;;;;;;;12.93;8.38;;;29.50;98.20;;;;;;6214908;23;20028;-79
2023/08/23 08:55:00;;;;;;;8.93;7.70;;;29.50;96.50;;;;;;6213185;23;20364;-81
2023/08/23 08:57:28;;;;;;;10.70;7.10;;;29.60;94.50;;;;;;6245192;23;20012;-81
2023/08/23 08:59:56;;;;;;;10.57;7.38;;;29.50;94.80;;;;;;6214909;23;20021;-80
2023/08/23 09:02:27;;;;;;;9.77;7.68;;;29.50;96.30;;;;;;6187188;23;20106;-80
2023/08/23 09:04:55;;;;;;;13.40;8.35;;;29.60;97.00;;;;;;6211240;23;20457;-79
2023/08/23 09:07:23;;;;;;;11.20;7.57;;;29.60;96.00;;;;;;6214758;23;20304;-80
2023/08/23 09:09:51;;;;;;;10.82;8.68;;;29.70;95.80;;;;;;6210078;23;20026;-79
2023/08/23 09:12:19;;;;;;;11.13;7.80;;;29.70;95.60;;;;;;6215174;23;20074;-81
2023/08/23 09:14:49;;;;;;;9.80;7.00;;;29.70;95.50;;;;;;6190159;23;20054;-80
2023/08/23 09:17:22;;;;;;;10.98;7.28;;;29.70;93.80;;;;;;6216945;23;20024;-81
2023/08/23 09:19:51;;;;;;;10.68;8.15;;;29.70;93.80;;;;;;6186389;23;20407;-79
2023/08/23 09:22:24;;;;;;;10.93;8.23;;;29.70;94.40;;;;;;6191412;23;20262;-80
2023/08/23 09:24:52;;;;;;;11.15;7.88;;;29.80;94.70;;;;;;6214084;23;20034;-80
2023/08/23 09:27:24;;;;;;;12.70;7.47;;;29.90;93.40;;;;;;6189685;23;20023;-79
2023/08/23 09:30:05;;;;;;;10.00;7.57;;;29.90;94.00;;;;;;6219430;23;20339;-81
2023/08/23 09:32:32;;;;;;;11.75;7.65;;;29.90;94.50;;;;;;6190772;23;20024;-79
2023/08/23 09:35:14;;;;;;;9.93;7.45;;;30.00;93.70;;;;;;6207507;23;20347;-81
2023/08/23 09:37:42;;;;;;;;;;;30.00;93.10;;;;;;6215721;23;20016;-80
2023/08/23 09:40:22;;;;;;;10.88;8.02;;;30.00;93.30;;;;;;6216148;23;20271;-78
2023/08/23 09:42:51;;;;;;;11.35;7.25;;;30.10;92.90;;;;;;6213209;23;20054;-80
2023/08/23 09:45:20;;;;;;;9.82;8.07;;;30.10;93.90;;;;;;6187806;23;20016;-79
2023/08/23 09:47:53;;;;;;;8.93;7.32;;;30.10;93.60;;;;;;6213546;23;20427;-80
2023/08/23 09:50:22;;;;;;;10.88;7.63;;;30.10;94.00;;;;;;6214133;23;20107;-78
2023/08/23 09:52:52;;;;;;;9.70;7.85;;;30.10;93.50;;;;;;6213787;23;20503;-79
2023/08/23 09:55:20;;;;;;;12.13;8.48;;;30.20;92.70;;;;;;6215420;23;20020;-79
2023/08/23 09:57:48;;;;;;;12.02;7.32;;;30.20;92.90;;;;;;6215956;23;20027;-80
2023/08/23 10:00:16;;;;;;;12.40;7.68;;;30.30;93.50;;;;;;6213161;23;20466;-79
2023/08/23 10:02:46;;;;;;;10.60;7.75;;;30.30;92.80;;;;;;6188057;23;20026;-79
2023/08/23 10:05:13;;;;;;;13.50;7.97;;;30.40;93.30;;;;;;6237394;23;20414;-81
2023/08/23 10:07:41;;;;;;;13.88;7.82;;;30.30;92.90;;;;;;6212172;23;20020;-80
2023/08/23 10:10:09;;;;;;;13.30;7.70;;;30.40;93.00;;;;;;6214011;23;20046;-79
2023/08/23 10:12:40;;;;;;;10.90;7.72;;;30.40;92.80;;;;;;6215137;23;20019;-79
2023/08/23 10:15:10;;;;;;;12.05;8.40;;;30.40;93.20;;;;;;6241189;23;20020;-80
2023/08/23 10:17:39;;;;;;;10.73;7.95;;;30.50;93.40;;;;;;6187573;23;20417;-80
2023/08/23 10:20:08;;;;;;;9.77;8.02;;;30.50;93.40;;;;;;6213728;23;20044;-80
2023/08/23 10:22:37;;;;;;;14.07;8.27;;;30.60;93.00;;;;;;6192707;23;20028;-79
2023/08/23 10:25:20;;;;;;;9.55;7.32;;;30.60;94.00;;;;;;6216612;23;20371;-78
2023/08/23 10:27:52;;;;;;;11.80;7.95;;;30.60;92.80;;;;;;6195047;23;20016;-78
2023/08/23 10:30:24;;;;;;;23.65;8.60;;;30.60;93.30;;;;;;6217748;23;20236;-78
2023/08/23 10:32:53;;;;;;;8.93;7.13;;;30.70;93.70;;;;;;6211180;23;20024;-77
2023/08/23 10:35:27;;;;;;;7.88;6.80;;;30.80;95.70;;;;;;6219927;23;20597;-77
2023/08/23 10:37:57;;;;;;;9.38;5.97;;;30.90;93.90;;;;;;6203904;23;20110;-77
2023/08/23 10:40:29;;;;;;;11.07;6.70;;;31.00;92.20;;;;;;6186430;23;20090;-77
2023/08/23 10:42:57;;;;;;;7.20;6.28;;;31.00;92.20;;;;;;6213002;23;20031;-78
2023/08/23 10:45:25;;;;;;;7.75;5.68;;;31.00;91.00;;;;;;6211603;23;20518;-78
2023/08/23 10:47:53;;;;;;;6.93;5.70;;;31.00;88.80;;;;;;6209519;23;20483;-79
2023/08/23 10:50:21;;;;;;;9.73;6.05;;;31.00;89.70;;;;;;6187969;23;20028;-78
2023/08/23 10:52:49;;;;;;;10.38;5.90;;;31.00;88.70;;;;;;6189404;23;20318;-78
2023/08/23 10:55:17;;;;;;;6.57;5.82;;;30.90;89.30;;;;;;6213321;23;20012;-78
2023/08/23 10:57:44;;;;;;;8.27;5.47;;;30.90;88.80;;;;;;6187045;23;20111;-78
2023/08/23 11:00:13;;;;;;;7.53;5.72;;;30.90;87.70;;;;;;6213403;23;20099;-80
2023/08/23 11:02:41;;;;;;;9.38;5.70;;;30.90;85.70;;;;;;6189719;23;20032;-78
2023/08/23 11:05:09;;;;;;;7.28;6.03;;;31.00;88.10;;;;;;6178851;23;20019;-81
2023/08/23 11:07:37;;;;;;;6.20;4.95;;;31.00;88.00;;;;;;6190463;23;20027;-78
2023/08/23 11:10:08;;;;;;;8.52;5.72;;;31.10;87.90;;;;;;6211190;23;20016;-77
2023/08/23 11:12:38;;;;;;;7.90;5.47;;;31.20;85.80;;;;;;6187242;23;20019;-77
2023/08/23 11:15:06;;;;;;;7.18;5.32;;;31.30;84.30;;;;;;6186996;23;20059;-78
2023/08/23 11:17:34;;;;;;;10.82;5.60;;;31.30;84.10;;;;;;6211956;23;20505;-78
2023/08/23 11:20:01;;;;;;;9.27;5.50;;;31.30;86.30;;;;;;6212957;23;20027;-79
2023/08/23 11:22:28;;;;;;;6.13;5.45;;;31.30;83.60;;;;;;6213606;23;20435;-77
2023/08/23 11:24:59;;;;;;;9.57;5.50;;;31.30;83.30;;;;;;6180856;23;20027;-79
2023/08/23 11:27:26;;;;;;;6.63;5.18;;;31.30;83.00;;;;;;6214383;23;20028;-79
2023/08/23 11:29:54;;;;;;;7.82;5.93;;;31.40;81.30;;;;;;6214645;23;20015;-80
2023/08/23 11:32:21;;;;;;;8.45;5.15;;;31.30;82.40;;;;;;6188352;23;20130;-78
2023/08/23 11:34:48;;;;;;;7.40;5.50;;;31.30;81.30;;;;;;6211750;23;20026;-79
2023/08/23 11:37:16;;;;;;;8.10;6.35;;;31.20;82.00;;;;;;6187679;23;20111;-77
2023/08/23 11:39:43;;;;;;;7.38;5.95;;;31.10;82.70;;;;;;6186982;23;20020;-80
2023/08/23 11:42:10;;;;;;;8.00;5.18;;;31.00;82.30;;;;;;6215403;23;20387;-78
2023/08/23 11:44:40;;;;;;;7.88;5.22;;;31.00;84.00;;;;;;6189197;23;20024;-78
2023/08/23 11:47:09;;;;;;;7.13;5.68;;;30.90;83.80;;;;;;6191488;23;20095;-78
2023/08/23 11:49:37;;;;;;;10.77;5.18;;;31.00;84.20;;;;;;6191372;23;20818;-78
2023/08/23 11:52:04;;;;;;;8.60;5.50;;;31.00;83.60;;;;;;6220475;23;20103;-81
2023/08/23 11:54:33;;;;;;;9.38;6.05;;;31.20;85.00;;;;;;6190757;23;20103;-79
2023/08/23 11:57:01;;;;;;;7.18;5.70;;;31.20;84.20;;;;;;6189479;23;20386;-83
2023/08/23 11:59:28;;;;;;;10.43;5.90;;;31.10;82.20;;;;;;6217564;23;20020;-79
2023/08/23 12:05:02;;;;;;;7.07;5.65;;;31.00;84.70;;;;;;6215201;23;20027;-79
2023/08/23 12:07:29;;;;;;;7.40;4.97;;;30.90;85.40;;;;;;6218142;23;20035;-78
2023/08/23 12:09:56;;;;;;;5.70;5.05;;;30.80;85.90;;;;;;6213376;23;20040;-80
2023/08/23 12:12:24;;;;;;;8.88;5.55;;;30.80;85.70;;;;;;6191688;23;20024;-79
2023/08/23 12:14:51;;;;;;;8.45;5.72;;;30.70;86.90;;;;;;6215384;23;20051;-80
2023/08/23 12:17:18;;;;;;;7.53;5.50;;;30.70;87.10;;;;;;6192572;23;20024;-79
2023/08/23 12:19:45;;;;;;;8.00;5.60;;;30.60;88.50;;;;;;6215792;23;20093;-80
2023/08/23 12:22:12;;;;;;;6.50;4.88;;;30.70;88.30;;;;;;6191643;23;20024;-79
2023/08/23 12:24:40;;;;;;;6.50;4.93;;;30.70;88.80;;;;;;6191697;23;20051;-79
2023/08/23 12:27:07;;;;;;;9.77;5.18;;;30.60;90.00;;;;;;6190835;23;20016;-79
2023/08/23 12:29:35;;;;;;;10.48;6.72;;;30.50;89.90;;;;;;6190184;23;20051;-78
2023/08/23 12:32:02;;;;;;;7.75;5.43;;;30.50;90.20;;;;;;6213179;23;20024;-78
2023/08/23 12:34:29;;;;;;;8.95;6.07;;;30.50;90.60;;;;;;6192113;23;20016;-79
2023/08/23 12:36:56;;;;;;;8.02;6.35;;;30.50;90.10;;;;;;6213443;23;20050;-79
2023/08/23 12:39:23;;;;;;;6.82;5.40;;;30.50;89.50;;;;;;6186670;23;20448;-78
2023/08/23 12:41:50;;;;;;;8.50;6.00;;;30.60;89.00;;;;;;6188302;23;20028;-77
2023/08/23 12:44:17;;;;;;;9.00;5.88;;;30.70;87.90;;;;;;6241838;23;20399;-79
2023/08/23 12:46:45;;;;;;;10.02;5.70;;;30.60;88.20;;;;;;6214885;23;20382;-81